createdAt,value
2018-12-07T00:00:41.487Z,998.93
2018-12-07T00:01:41.487Z,998.90
2018-12-07T00:02:41.547Z,998.82
2018-12-07T00:03:41.545Z,998.90
2018-12-07T00:04:41.543Z,998.85
2018-12-07T00:05:41.578Z,998.83
2018-12-07T00:06:41.585Z,998.84
2018-12-07T00:07:41.619Z,998.82
2018-12-07T00:08:41.624Z,998.77
2018-12-07T00:09:41.777Z,998.73
2018-12-07T00:10:41.658Z,998.79
2018-12-07T00:11:41.687Z,998.77
2018-12-07T00:12:41.705Z,998.79
2018-12-07T00:13:41.718Z,998.72
2018-12-07T00:14:41.740Z,998.78
2018-12-07T00:15:41.758Z,998.74
2018-12-07T00:16:41.775Z,998.70
2018-12-07T00:17:41.802Z,998.72
2018-12-07T00:18:41.818Z,998.70
2018-12-07T00:19:47.963Z,998.73
2018-12-07T00:20:41.858Z,998.73
2018-12-07T00:21:41.879Z,998.81
2018-12-07T00:22:41.912Z,998.80
2018-12-07T00:23:41.914Z,998.76
2018-12-07T00:24:41.950Z,998.77
2018-12-07T00:25:41.957Z,998.80
2018-12-07T00:26:41.974Z,998.78
2018-12-07T00:27:41.995Z,998.74
2018-12-07T00:28:42.019Z,998.72
2018-12-07T00:29:42.035Z,998.74
2018-12-07T00:30:42.060Z,998.72
2018-12-07T00:31:42.078Z,998.72
2018-12-07T00:32:42.093Z,998.71
2018-12-07T00:33:42.113Z,998.74
2018-12-07T00:34:42.138Z,998.70
2018-12-07T00:35:42.157Z,998.71
2018-12-07T00:36:42.170Z,998.69
2018-12-07T00:37:42.197Z,998.66
2018-12-07T00:38:42.210Z,998.69
2018-12-07T00:39:42.226Z,998.65
2018-12-07T00:40:42.247Z,998.66
2018-12-07T00:41:42.268Z,998.63
2018-12-07T00:42:42.290Z,998.67
2018-12-07T00:43:42.315Z,998.62
2018-12-07T00:44:42.331Z,998.63
2018-12-07T00:45:42.360Z,998.58
2018-12-07T00:46:42.375Z,998.67
2018-12-07T00:47:42.385Z,998.65
2018-12-07T00:48:42.406Z,998.62
2018-12-07T00:49:42.433Z,998.58
2018-12-07T00:50:42.446Z,998.56
2018-12-07T00:51:42.460Z,998.54
2018-12-07T00:52:42.488Z,998.59
2018-12-07T00:53:42.505Z,998.56
2018-12-07T00:54:42.528Z,998.57
2018-12-07T00:55:42.543Z,998.56
2018-12-07T00:56:42.570Z,998.54
2018-12-07T00:57:42.611Z,998.55
2018-12-07T00:58:42.603Z,998.53
2018-12-07T00:59:42.624Z,998.55
2018-12-07T01:00:42.646Z,998.54
2018-12-07T01:01:42.660Z,998.54
2018-12-07T01:02:42.687Z,998.53
2018-12-07T01:03:42.700Z,998.56
2018-12-07T01:04:42.726Z,998.60
2018-12-07T01:05:42.757Z,998.61
2018-12-07T01:06:42.774Z,998.55
2018-12-07T01:07:42.783Z,998.55
2018-12-07T01:08:42.799Z,998.50
2018-12-07T01:09:42.819Z,998.52
2018-12-07T01:10:42.838Z,998.49
2018-12-07T01:11:42.860Z,998.50
2018-12-07T01:12:42.876Z,998.50
2018-12-07T01:13:42.896Z,998.52
2018-12-07T01:14:42.918Z,998.52
2018-12-07T01:15:42.945Z,998.49
2018-12-07T01:16:42.973Z,998.51
2018-12-07T01:17:42.973Z,998.46
2018-12-07T01:18:43.022Z,998.45
2018-12-07T01:19:43.016Z,998.40
2018-12-07T01:20:43.040Z,998.40
2018-12-07T01:21:43.056Z,998.42
2018-12-07T01:22:43.078Z,998.43
2018-12-07T01:23:43.096Z,998.39
2018-12-07T01:24:43.119Z,998.37
2018-12-07T01:25:43.166Z,998.34
2018-12-07T01:26:43.171Z,998.38
2018-12-07T01:27:43.178Z,998.34
2018-12-07T01:28:43.193Z,998.34
2018-12-07T01:29:43.218Z,998.27
2018-12-07T01:30:43.233Z,998.27
2018-12-07T01:31:43.271Z,998.25
2018-12-07T01:32:43.270Z,998.22
2018-12-07T01:33:43.299Z,998.23
2018-12-07T01:34:43.311Z,998.23
2018-12-07T01:35:43.342Z,998.27
2018-12-07T01:36:43.349Z,998.26
2018-12-07T01:37:43.369Z,998.23
2018-12-07T01:38:43.397Z,998.23
2018-12-07T01:39:43.423Z,998.23
2018-12-07T01:40:43.436Z,998.24
2018-12-07T01:41:43.445Z,998.25
2018-12-07T01:42:43.470Z,998.24
2018-12-07T01:43:43.497Z,998.20
2018-12-07T01:44:43.505Z,998.18
2018-12-07T01:45:43.525Z,998.20
2018-12-07T01:46:43.569Z,998.22
2018-12-07T01:47:43.577Z,998.18
2018-12-07T01:48:43.598Z,998.18
2018-12-07T01:49:43.603Z,998.10
2018-12-07T01:50:43.626Z,998.09
2018-12-07T01:51:43.641Z,998.07
2018-12-07T01:52:43.679Z,998.07
2018-12-07T01:53:43.684Z,998.09
2018-12-07T01:54:43.847Z,998.06
2018-12-07T01:55:43.728Z,998.04
2018-12-07T01:56:43.739Z,997.99
2018-12-07T01:57:43.762Z,998.00
2018-12-07T01:58:43.780Z,998.01
2018-12-07T01:59:43.795Z,998.03
2018-12-07T02:00:43.820Z,998.07
2018-12-07T02:01:43.835Z,998.04
2018-12-07T02:02:43.855Z,998.05
2018-12-07T02:03:43.878Z,998.02
2018-12-07T02:04:43.897Z,997.99
2018-12-07T02:05:43.918Z,997.98
2018-12-07T02:06:43.946Z,997.96
2018-12-07T02:07:43.960Z,997.99
2018-12-07T02:08:44.049Z,997.95
2018-12-07T02:09:44.002Z,997.87
2018-12-07T02:10:44.019Z,997.90
2018-12-07T02:11:44.030Z,997.84
2018-12-07T02:12:44.058Z,997.85
2018-12-07T02:13:44.082Z,997.80
2018-12-07T02:14:44.092Z,997.77
2018-12-07T02:15:44.117Z,997.74
2018-12-07T02:16:44.149Z,997.70
2018-12-07T02:17:44.164Z,997.68
2018-12-07T02:18:44.190Z,997.72
2018-12-07T02:19:44.196Z,997.65
2018-12-07T02:20:44.215Z,997.63
2018-12-07T02:21:44.230Z,997.57
2018-12-07T02:22:44.246Z,997.61
2018-12-07T02:23:44.285Z,997.58
2018-12-07T02:24:44.298Z,997.58
2018-12-07T02:25:44.306Z,997.59
2018-12-07T02:26:44.331Z,997.57
2018-12-07T02:27:44.360Z,997.60
2018-12-07T02:28:44.367Z,997.61
2018-12-07T02:29:44.386Z,997.57
2018-12-07T02:30:44.404Z,997.62
2018-12-07T02:31:44.438Z,997.56
2018-12-07T02:32:44.444Z,997.58
2018-12-07T02:33:44.466Z,997.59
2018-12-07T02:34:44.511Z,997.58
2018-12-07T02:35:44.503Z,997.54
2018-12-07T02:36:44.526Z,997.57
2018-12-07T02:37:44.549Z,997.55
2018-12-07T02:38:44.568Z,997.50
2018-12-07T02:39:44.593Z,997.49
2018-12-07T02:40:44.599Z,997.47
2018-12-07T02:41:44.631Z,997.47
2018-12-07T02:42:44.657Z,997.48
2018-12-07T02:43:44.658Z,997.53
2018-12-07T02:44:44.680Z,997.53
2018-12-07T02:45:44.703Z,997.51
2018-12-07T02:46:44.735Z,997.53
2018-12-07T02:47:44.749Z,997.51
2018-12-07T02:48:44.890Z,997.52
2018-12-07T02:49:44.777Z,997.48
2018-12-07T02:50:44.811Z,997.45
2018-12-07T02:51:44.811Z,997.49
2018-12-07T02:52:44.836Z,997.47
2018-12-07T02:53:44.853Z,997.47
2018-12-07T02:54:44.875Z,997.43
2018-12-07T02:55:44.897Z,997.42
2018-12-07T02:56:44.920Z,997.40
2018-12-07T02:57:44.935Z,997.40
2018-12-07T02:58:44.952Z,997.39
2018-12-07T02:59:44.976Z,997.37
2018-12-07T03:00:45.000Z,997.29
2018-12-07T03:01:45.135Z,997.31
2018-12-07T03:02:45.028Z,997.31
2018-12-07T03:03:45.049Z,997.26
2018-12-07T03:04:45.073Z,997.26
2018-12-07T03:05:45.088Z,997.27
2018-12-07T03:06:45.110Z,997.23
2018-12-07T03:07:45.135Z,997.19
2018-12-07T03:08:45.165Z,997.24
2018-12-07T03:09:45.179Z,997.25
2018-12-07T03:10:45.192Z,997.23
2018-12-07T03:11:45.208Z,997.21
2018-12-07T03:12:45.230Z,997.17
2018-12-07T03:13:45.245Z,997.13
2018-12-07T03:14:45.272Z,997.15
2018-12-07T03:15:45.284Z,997.13
2018-12-07T03:16:45.310Z,997.07
2018-12-07T03:17:45.333Z,997.06
2018-12-07T03:18:45.342Z,997.11
2018-12-07T03:19:45.361Z,997.03
2018-12-07T03:20:45.382Z,997.00
2018-12-07T03:21:45.400Z,996.96
2018-12-07T03:22:45.432Z,996.98
2018-12-07T03:23:45.448Z,996.99
2018-12-07T03:24:45.473Z,996.95
2018-12-07T03:25:45.485Z,997.03
2018-12-07T03:26:45.515Z,996.98
2018-12-07T03:27:45.524Z,996.98
2018-12-07T03:28:45.546Z,997.03
2018-12-07T03:29:45.561Z,997.04
2018-12-07T03:30:45.583Z,997.06
2018-12-07T03:31:45.594Z,997.03
2018-12-07T03:32:45.631Z,997.06
2018-12-07T03:33:45.641Z,997.00
2018-12-07T03:34:45.663Z,997.03
2018-12-07T03:35:45.677Z,996.98
2018-12-07T03:36:45.711Z,996.97
2018-12-07T03:37:45.715Z,996.99
2018-12-07T03:38:45.733Z,996.96
2018-12-07T03:39:45.753Z,996.93
2018-12-07T03:40:45.780Z,996.90
2018-12-07T03:41:45.788Z,996.89
2018-12-07T03:42:45.812Z,996.89
2018-12-07T03:43:45.828Z,996.83
2018-12-07T03:44:45.851Z,996.84
2018-12-07T03:45:45.877Z,996.86
2018-12-07T03:46:45.890Z,996.88
2018-12-07T03:47:45.909Z,996.82
2018-12-07T03:48:45.924Z,996.80
2018-12-07T03:49:45.955Z,996.79
2018-12-07T03:50:45.968Z,996.78
2018-12-07T03:51:45.987Z,996.82
2018-12-07T03:52:46.007Z,996.81
2018-12-07T03:53:46.025Z,996.78
2018-12-07T03:54:46.050Z,996.80
2018-12-07T03:55:46.066Z,996.74
2018-12-07T03:56:46.099Z,996.79
2018-12-07T03:57:46.106Z,996.75
2018-12-07T03:58:46.129Z,996.76
2018-12-07T03:59:46.142Z,996.73
2018-12-07T04:00:46.168Z,996.71
2018-12-07T04:01:46.183Z,996.73
2018-12-07T04:02:46.248Z,996.67
2018-12-07T04:03:46.223Z,996.73
2018-12-07T04:04:46.241Z,996.70
2018-12-07T04:05:46.268Z,996.72
2018-12-07T04:06:46.287Z,996.74
2018-12-07T04:07:46.303Z,996.72
2018-12-07T04:08:46.320Z,996.70
2018-12-07T04:09:46.339Z,996.72
2018-12-07T04:10:46.375Z,996.70
2018-12-07T04:11:46.379Z,996.64
2018-12-07T04:12:46.396Z,996.65
2018-12-07T04:13:46.419Z,996.61
2018-12-07T04:14:46.438Z,996.61
2018-12-07T04:15:46.466Z,996.68
2018-12-07T04:16:46.478Z,996.63
2018-12-07T04:17:46.502Z,996.62
2018-12-07T04:18:46.538Z,996.62
2018-12-07T04:19:46.545Z,996.64
2018-12-07T04:20:46.554Z,996.60
2018-12-07T04:21:46.578Z,996.59
2018-12-07T04:22:46.593Z,996.53
2018-12-07T04:23:46.624Z,996.58
2018-12-07T04:24:46.653Z,996.58
2018-12-07T04:25:46.654Z,996.55
2018-12-07T04:26:46.776Z,996.50
2018-12-07T04:27:46.694Z,996.46
2018-12-07T04:28:46.730Z,996.51
2018-12-07T04:29:46.748Z,996.47
2018-12-07T04:30:46.755Z,996.43
2018-12-07T04:31:46.779Z,996.43
2018-12-07T04:32:46.790Z,996.45
2018-12-07T04:33:46.824Z,996.45
2018-12-07T04:34:46.832Z,996.43
2018-12-07T04:35:46.862Z,996.47
2018-12-07T04:36:46.873Z,996.42
2018-12-07T04:37:46.893Z,996.44
2018-12-07T04:38:46.913Z,996.45
2018-12-07T04:39:46.934Z,996.40
2018-12-07T04:40:46.950Z,996.40
2018-12-07T04:41:46.972Z,996.42
2018-12-07T04:42:46.995Z,996.44
2018-12-07T04:43:47.013Z,996.44
2018-12-07T04:44:47.028Z,996.42
2018-12-07T04:45:47.054Z,996.45
2018-12-07T04:46:47.076Z,996.42
2018-12-07T04:47:47.088Z,996.41
2018-12-07T04:48:47.105Z,996.42
2018-12-07T04:49:47.125Z,996.39
2018-12-07T04:50:47.148Z,996.36
2018-12-07T04:51:47.171Z,996.33
2018-12-07T04:52:47.194Z,996.32
2018-12-07T04:53:47.250Z,996.24
2018-12-07T04:54:47.224Z,996.26
2018-12-07T04:55:47.246Z,996.26
2018-12-07T04:56:47.272Z,996.26
2018-12-07T04:57:47.287Z,996.21
2018-12-07T04:58:47.306Z,996.23
2018-12-07T04:59:47.332Z,996.21
2018-12-07T05:00:47.344Z,996.17
2018-12-07T05:01:47.364Z,996.21
2018-12-07T05:02:47.386Z,996.16
2018-12-07T05:03:47.401Z,996.16
2018-12-07T05:04:47.422Z,996.13
2018-12-07T05:05:47.440Z,996.07
2018-12-07T05:06:47.465Z,996.07
2018-12-07T05:07:47.485Z,996.10
2018-12-07T05:08:47.505Z,996.05
2018-12-07T05:09:47.524Z,996.02
2018-12-07T05:10:47.545Z,996.01
2018-12-07T05:11:47.560Z,996.00
2018-12-07T05:12:47.578Z,996.00
2018-12-07T05:13:47.602Z,995.98
2018-12-07T05:14:47.619Z,996.00
2018-12-07T05:15:47.649Z,995.99
2018-12-07T05:16:47.658Z,996.05
2018-12-07T05:17:47.682Z,996.04
2018-12-07T05:18:47.700Z,996.04
2018-12-07T05:19:47.722Z,996.04
2018-12-07T05:20:47.738Z,996.00
2018-12-07T05:21:47.760Z,996.00
2018-12-07T05:22:47.788Z,996.01
2018-12-07T05:23:47.795Z,996.00
2018-12-07T05:24:47.818Z,996.00
2018-12-07T05:25:47.841Z,995.97
2018-12-07T05:26:47.855Z,995.94
2018-12-07T05:27:47.882Z,995.95
2018-12-07T05:28:47.907Z,995.92
2018-12-07T05:29:47.916Z,995.95
2018-12-07T05:30:47.945Z,995.93
2018-12-07T05:31:47.958Z,995.91
2018-12-07T05:32:48.006Z,995.95
2018-12-07T05:33:47.996Z,995.96
2018-12-07T05:34:48.016Z,995.97
2018-12-07T05:35:48.035Z,995.91
2018-12-07T05:36:48.061Z,995.92
2018-12-07T05:37:48.071Z,995.89
2018-12-07T05:38:48.111Z,995.91
2018-12-07T05:39:48.116Z,995.94
2018-12-07T05:40:48.134Z,995.94
2018-12-07T05:41:48.156Z,995.96
2018-12-07T05:42:48.178Z,995.97
2018-12-07T05:43:48.197Z,995.89
2018-12-07T05:44:48.211Z,995.89
2018-12-07T05:45:48.228Z,995.90
2018-12-07T05:46:48.252Z,995.84
2018-12-07T05:47:48.266Z,995.84
2018-12-07T05:48:48.288Z,995.84
2018-12-07T05:49:48.309Z,995.81
2018-12-07T05:50:48.332Z,995.79
2018-12-07T05:51:48.349Z,995.79
2018-12-07T05:52:48.374Z,995.79
2018-12-07T05:53:48.394Z,995.77
2018-12-07T05:54:48.408Z,995.77
2018-12-07T05:55:48.423Z,995.78
2018-12-07T05:56:48.471Z,995.76
2018-12-07T05:57:48.470Z,995.73
2018-12-07T05:58:48.486Z,995.77
2018-12-07T05:59:48.524Z,995.69
2018-12-07T06:00:48.528Z,995.70
2018-12-07T06:01:48.561Z,995.68
2018-12-07T06:02:48.570Z,995.66
2018-12-07T06:03:48.594Z,995.65
2018-12-07T06:04:48.606Z,995.68
2018-12-07T06:05:48.630Z,995.69
2018-12-07T06:06:48.648Z,995.71
2018-12-07T06:07:48.664Z,995.68
2018-12-07T06:08:48.683Z,995.66
2018-12-07T06:09:48.704Z,995.71
2018-12-07T06:10:48.723Z,995.71
2018-12-07T06:11:48.787Z,995.68
2018-12-07T06:12:48.774Z,995.66
2018-12-07T06:13:48.788Z,995.65
2018-12-07T06:14:48.805Z,995.68
2018-12-07T06:15:48.820Z,995.68
2018-12-07T06:16:48.846Z,995.70
2018-12-07T06:17:48.868Z,995.67
2018-12-07T06:18:48.878Z,995.61
2018-12-07T06:19:48.897Z,995.60
2018-12-07T06:20:48.918Z,995.62
2018-12-07T06:21:48.942Z,995.59
2018-12-07T06:22:49.044Z,995.54
2018-12-07T06:23:48.983Z,995.55
2018-12-07T06:24:48.999Z,995.53
2018-12-07T06:25:49.032Z,995.52
2018-12-07T06:26:49.033Z,995.52
2018-12-07T06:27:49.058Z,995.54
2018-12-07T06:28:49.078Z,995.54
2018-12-07T06:29:49.101Z,995.48
2018-12-07T06:30:49.128Z,995.50
2018-12-07T06:31:49.140Z,995.48
2018-12-07T06:32:49.153Z,995.51
2018-12-07T06:33:49.191Z,995.53
2018-12-07T06:34:49.191Z,995.52
2018-12-07T06:35:49.210Z,995.50
2018-12-07T06:36:49.234Z,995.53
2018-12-07T06:37:49.251Z,995.53
2018-12-07T06:38:49.278Z,995.51
2018-12-07T06:39:49.291Z,995.53
2018-12-07T06:40:49.318Z,995.49
2018-12-07T06:41:49.396Z,995.48
2018-12-07T06:42:49.350Z,995.49
2018-12-07T06:43:49.369Z,995.47
2018-12-07T06:44:49.387Z,995.43
2018-12-07T06:45:49.430Z,995.45
2018-12-07T06:46:49.438Z,995.43
2018-12-07T06:47:49.447Z,995.42
2018-12-07T06:48:49.468Z,995.40
2018-12-07T06:49:49.490Z,995.38
2018-12-07T06:50:49.513Z,995.31
2018-12-07T06:51:49.545Z,995.32
2018-12-07T06:52:49.550Z,995.33
2018-12-07T06:53:49.567Z,995.32
2018-12-07T06:54:49.590Z,995.34
2018-12-07T06:55:49.610Z,995.28
2018-12-07T06:56:49.636Z,995.28
2018-12-07T06:57:49.649Z,995.30
2018-12-07T06:58:49.681Z,995.25
2018-12-07T06:59:49.691Z,995.24
2018-12-07T07:00:49.729Z,995.21
2018-12-07T07:01:49.728Z,995.21
2018-12-07T07:02:49.828Z,995.16
2018-12-07T07:03:49.767Z,995.15
2018-12-07T07:04:49.787Z,995.15
2018-12-07T07:05:49.804Z,995.12
2018-12-07T07:06:49.824Z,995.13
2018-12-07T07:07:49.857Z,995.11
2018-12-07T07:08:49.866Z,995.17
2018-12-07T07:09:49.889Z,995.11
2018-12-07T07:10:49.913Z,995.06
2018-12-07T07:11:49.925Z,995.08
2018-12-07T07:12:49.946Z,995.10
2018-12-07T07:13:49.963Z,995.07
2018-12-07T07:14:49.981Z,995.03
2018-12-07T07:15:50.001Z,995.00
2018-12-07T07:16:50.029Z,995.03
2018-12-07T07:17:50.044Z,995.02
2018-12-07T07:18:50.065Z,994.97
2018-12-07T07:19:50.078Z,994.97
2018-12-07T07:20:50.105Z,994.92
2018-12-07T07:21:50.120Z,994.91
2018-12-07T07:22:50.149Z,994.93
2018-12-07T07:23:50.163Z,994.91
2018-12-07T07:24:50.183Z,994.90
2018-12-07T07:25:50.205Z,994.94
2018-12-07T07:26:50.228Z,994.93
2018-12-07T07:27:50.239Z,994.92
2018-12-07T07:28:50.269Z,994.93
2018-12-07T07:29:50.280Z,994.92
2018-12-07T07:30:50.298Z,994.86
2018-12-07T07:31:50.320Z,994.86
2018-12-07T07:32:50.342Z,994.86
2018-12-07T07:33:50.359Z,994.84
2018-12-07T07:34:50.384Z,994.83
2018-12-07T07:35:50.397Z,994.83
2018-12-07T07:36:50.414Z,994.81
2018-12-07T07:37:50.446Z,994.78
2018-12-07T07:38:50.457Z,994.81
2018-12-07T07:39:50.480Z,994.77
2018-12-07T07:40:50.504Z,994.76
2018-12-07T07:41:50.519Z,994.73
2018-12-07T07:42:50.537Z,994.80
2018-12-07T07:43:50.558Z,994.76
2018-12-07T07:44:50.591Z,994.72
2018-12-07T07:45:50.602Z,994.72
2018-12-07T07:46:50.620Z,994.68
2018-12-07T07:47:50.743Z,994.65
2018-12-07T07:48:50.658Z,994.65
2018-12-07T07:49:50.676Z,994.70
2018-12-07T07:50:50.702Z,994.67
2018-12-07T07:51:50.716Z,994.62
2018-12-07T07:52:50.748Z,994.63
2018-12-07T07:53:50.752Z,994.61
2018-12-07T07:54:50.782Z,994.61
2018-12-07T07:55:50.804Z,994.57
2018-12-07T07:56:50.812Z,994.60
2018-12-07T07:57:50.831Z,994.60
2018-12-07T07:58:50.856Z,994.57
2018-12-07T07:59:50.869Z,994.54
2018-12-07T08:00:50.907Z,994.53
2018-12-07T08:01:50.918Z,994.52
2018-12-07T08:02:50.937Z,994.51
2018-12-07T08:03:50.954Z,994.50
2018-12-07T08:04:50.980Z,994.47
2018-12-07T08:05:50.995Z,994.49
2018-12-07T08:06:51.011Z,994.45
2018-12-07T08:07:51.028Z,994.38
2018-12-07T08:08:51.054Z,994.35
2018-12-07T08:09:51.077Z,994.39
2018-12-07T08:10:51.090Z,994.33
2018-12-07T08:11:51.107Z,994.32
2018-12-07T08:12:51.127Z,994.27
2018-12-07T08:13:51.286Z,994.25
2018-12-07T08:14:51.181Z,994.25
2018-12-07T08:15:51.193Z,994.20
2018-12-07T08:16:51.206Z,994.24
2018-12-07T08:17:51.231Z,994.21
2018-12-07T08:18:51.256Z,994.22
2018-12-07T08:19:51.272Z,994.21
2018-12-07T08:20:51.302Z,994.23
2018-12-07T08:21:51.305Z,994.19
2018-12-07T08:22:51.332Z,994.19
2018-12-07T08:23:51.352Z,994.25
2018-12-07T08:24:51.374Z,994.19
2018-12-07T08:25:51.387Z,994.19
2018-12-07T08:26:51.404Z,994.21
2018-12-07T08:27:51.425Z,994.24
2018-12-07T08:28:51.448Z,994.20
2018-12-07T08:29:51.471Z,994.20
2018-12-07T08:30:51.487Z,994.17
2018-12-07T08:31:51.505Z,994.17
2018-12-07T08:32:51.524Z,994.15
2018-12-07T08:33:51.550Z,994.22
2018-12-07T08:34:51.561Z,994.15
2018-12-07T08:35:51.587Z,994.16
2018-12-07T08:36:51.629Z,994.15
2018-12-07T08:37:51.622Z,994.11
2018-12-07T08:38:51.642Z,994.15
2018-12-07T08:39:51.666Z,994.13
2018-12-07T08:40:51.683Z,994.13
2018-12-07T08:41:51.704Z,994.12
2018-12-07T08:42:51.727Z,994.08
2018-12-07T08:43:51.741Z,994.10
2018-12-07T08:44:51.768Z,994.07
2018-12-07T08:45:51.804Z,994.10
2018-12-07T08:46:51.810Z,994.07
2018-12-07T08:47:51.832Z,994.08
2018-12-07T08:48:51.843Z,994.10
2018-12-07T08:49:51.868Z,994.06
2018-12-07T08:50:51.880Z,994.00
2018-12-07T08:51:51.903Z,993.99
2018-12-07T08:52:51.931Z,994.03
2018-12-07T08:53:51.943Z,993.96
2018-12-07T08:54:51.968Z,993.93
2018-12-07T08:55:51.983Z,993.95
2018-12-07T08:56:52.005Z,993.93
2018-12-07T08:57:52.026Z,993.94
2018-12-07T08:58:52.044Z,993.94
2018-12-07T08:59:52.057Z,993.88
2018-12-07T09:00:52.090Z,993.90
2018-12-07T09:01:52.100Z,993.87
2018-12-07T09:02:52.118Z,993.89
2018-12-07T09:03:52.144Z,993.86
2018-12-07T09:04:52.158Z,993.84
2018-12-07T09:05:52.178Z,993.84
2018-12-07T09:06:52.194Z,993.83
2018-12-07T09:07:52.233Z,993.77
2018-12-07T09:08:52.236Z,993.81
2018-12-07T09:09:52.266Z,993.80
2018-12-07T09:10:52.278Z,993.79
2018-12-07T09:11:52.297Z,993.78
2018-12-07T09:12:52.319Z,993.74
2018-12-07T09:13:52.339Z,993.76
2018-12-07T09:14:52.358Z,993.73
2018-12-07T09:15:52.378Z,993.69
2018-12-07T09:16:52.396Z,993.68
2018-12-07T09:17:52.426Z,993.66
2018-12-07T09:18:52.447Z,993.65
2018-12-07T09:19:52.468Z,993.60
2018-12-07T09:20:54.223Z,993.62
2018-12-07T09:21:52.501Z,993.59
2018-12-07T09:22:52.521Z,993.53
2018-12-07T09:23:52.535Z,993.57
2018-12-07T09:24:52.560Z,993.52
2018-12-07T09:25:52.577Z,993.53
2018-12-07T09:26:52.594Z,993.56
2018-12-07T09:27:52.614Z,993.54
2018-12-07T09:28:52.639Z,993.56
2018-12-07T09:29:52.657Z,993.53
2018-12-07T09:30:52.673Z,993.55
2018-12-07T09:31:52.694Z,993.56
2018-12-07T09:32:52.719Z,993.50
2018-12-07T09:33:52.745Z,993.51
2018-12-07T09:34:52.755Z,993.47
2018-12-07T09:35:52.779Z,993.43
2018-12-07T09:36:52.794Z,993.46
2018-12-07T09:37:52.819Z,993.38
2018-12-07T09:38:52.839Z,993.44
2018-12-07T09:39:52.859Z,993.38
2018-12-07T09:40:52.890Z,993.42
2018-12-07T09:41:52.921Z,993.45
2018-12-07T09:42:52.938Z,993.44
2018-12-07T09:43:52.951Z,993.48
2018-12-07T09:44:52.956Z,993.44
2018-12-07T09:45:52.979Z,993.46
2018-12-07T09:46:53.012Z,993.43
2018-12-07T09:47:53.044Z,993.44
2018-12-07T09:48:53.034Z,993.43
2018-12-07T09:49:53.053Z,993.41
2018-12-07T09:50:53.073Z,993.40
2018-12-07T09:51:53.094Z,993.43
2018-12-07T09:52:53.125Z,993.39
2018-12-07T09:53:53.131Z,993.42
2018-12-07T09:54:53.155Z,993.38
2018-12-07T09:55:53.174Z,993.36
2018-12-07T09:56:53.216Z,993.36
2018-12-07T09:57:53.213Z,993.36
2018-12-07T09:58:53.232Z,993.30
2018-12-07T09:59:53.255Z,993.32
2018-12-07T10:00:53.273Z,993.26
2018-12-07T10:01:53.295Z,993.25
2018-12-07T10:02:53.310Z,993.22
2018-12-07T10:03:53.331Z,993.21
2018-12-07T10:04:53.357Z,993.16
2018-12-07T10:05:53.377Z,993.14
2018-12-07T10:06:53.405Z,993.10
2018-12-07T10:07:53.414Z,993.08
2018-12-07T10:08:53.445Z,993.05
2018-12-07T10:09:53.529Z,993.04
2018-12-07T10:10:53.488Z,993.02
2018-12-07T10:11:53.490Z,992.98
2018-12-07T10:12:53.509Z,992.96
2018-12-07T10:13:53.530Z,992.98
2018-12-07T10:14:53.553Z,992.97
2018-12-07T10:15:53.570Z,992.98
2018-12-07T10:16:53.587Z,992.95
2018-12-07T10:17:53.611Z,992.95
2018-12-07T10:18:53.631Z,992.91
2018-12-07T10:19:53.694Z,992.93
2018-12-07T10:20:53.698Z,992.88
2018-12-07T10:21:53.691Z,992.86
2018-12-07T10:22:53.737Z,992.80
2018-12-07T10:23:53.731Z,992.76
2018-12-07T10:24:53.749Z,992.79
2018-12-07T10:25:53.773Z,992.69
2018-12-07T10:26:53.787Z,992.68
2018-12-07T10:27:53.808Z,992.65
2018-12-07T10:28:53.829Z,992.64
2018-12-07T10:29:53.846Z,992.57
2018-12-07T10:30:53.867Z,992.54
2018-12-07T10:31:53.888Z,992.48
2018-12-07T10:32:53.907Z,992.49
2018-12-07T10:33:53.923Z,992.45
2018-12-07T10:34:53.949Z,992.46
2018-12-07T10:35:53.968Z,992.44
2018-12-07T10:36:53.986Z,992.44
2018-12-07T10:37:54.008Z,992.41
2018-12-07T10:38:54.028Z,992.38
2018-12-07T10:39:54.045Z,992.35
2018-12-07T10:40:54.066Z,992.34
2018-12-07T10:41:54.089Z,992.30
2018-12-07T10:42:54.104Z,992.27
2018-12-07T10:43:54.126Z,992.27
2018-12-07T10:44:54.170Z,992.22
2018-12-07T10:45:54.167Z,992.19
2018-12-07T10:46:54.188Z,992.22
2018-12-07T10:47:54.207Z,992.18
2018-12-07T10:48:54.245Z,992.15
2018-12-07T10:49:54.249Z,992.08
2018-12-07T10:50:54.267Z,992.12
2018-12-07T10:51:54.282Z,992.09
2018-12-07T10:52:54.317Z,992.10
2018-12-07T10:53:54.323Z,992.06
2018-12-07T10:54:54.344Z,991.99
2018-12-07T10:55:54.364Z,992.02
2018-12-07T10:56:54.383Z,991.96
2018-12-07T10:57:54.405Z,991.92
2018-12-07T10:58:54.426Z,991.90
2018-12-07T10:59:54.444Z,991.83
2018-12-07T11:00:54.461Z,991.76
2018-12-07T11:01:54.491Z,991.79
2018-12-07T11:02:54.502Z,991.79
2018-12-07T11:03:54.527Z,991.74
2018-12-07T11:04:54.546Z,991.73
2018-12-07T11:05:54.564Z,991.68
2018-12-07T11:06:54.589Z,991.66
2018-12-07T11:07:54.614Z,991.65
2018-12-07T11:08:54.622Z,991.63
2018-12-07T11:09:54.646Z,991.64
2018-12-07T11:10:54.659Z,991.60
2018-12-07T11:11:54.695Z,991.60
2018-12-07T11:12:54.708Z,991.54
2018-12-07T11:13:54.722Z,991.52
2018-12-07T11:14:54.745Z,991.45
2018-12-07T11:15:54.762Z,991.47
2018-12-07T11:16:54.777Z,991.44
2018-12-07T11:17:54.806Z,991.42
2018-12-07T11:18:54.824Z,991.39
2018-12-07T11:19:54.836Z,991.35
2018-12-07T11:20:54.859Z,991.34
2018-12-07T11:21:54.883Z,991.31
2018-12-07T11:22:54.900Z,991.24
2018-12-07T11:23:54.922Z,991.22
2018-12-07T11:24:54.939Z,991.19
2018-12-07T11:25:54.958Z,991.16
2018-12-07T11:26:54.977Z,991.10
2018-12-07T11:27:55.001Z,991.11
2018-12-07T11:28:55.021Z,991.08
2018-12-07T11:29:55.036Z,991.10
2018-12-07T11:30:55.056Z,990.95
2018-12-07T11:31:55.085Z,990.98
2018-12-07T11:32:55.096Z,990.97
2018-12-07T11:33:55.118Z,990.96
2018-12-07T11:34:55.135Z,990.92
2018-12-07T11:35:55.159Z,990.90
2018-12-07T11:36:55.174Z,990.89
2018-12-07T11:37:55.197Z,990.87
2018-12-07T11:38:55.214Z,990.79
2018-12-07T11:39:55.235Z,990.78
2018-12-07T11:40:55.271Z,990.78
2018-12-07T11:41:55.282Z,990.77
2018-12-07T11:42:55.294Z,990.74
2018-12-07T11:43:55.311Z,990.67
2018-12-07T11:44:55.335Z,990.62
2018-12-07T11:45:55.349Z,990.63
2018-12-07T11:46:55.371Z,990.58
2018-12-07T11:47:55.392Z,990.60
2018-12-07T11:48:55.411Z,990.57
2018-12-07T11:49:55.431Z,990.54
2018-12-07T11:50:55.460Z,990.54
2018-12-07T11:51:55.469Z,990.50
2018-12-07T11:52:55.487Z,990.46
2018-12-07T11:53:55.508Z,990.45
2018-12-07T11:54:55.539Z,990.36
2018-12-07T11:55:55.555Z,990.32
2018-12-07T11:56:55.570Z,990.30
2018-12-07T11:57:55.588Z,990.27
2018-12-07T11:58:55.611Z,990.21
2018-12-07T11:59:55.629Z,990.18
2018-12-07T12:00:55.654Z,990.24
2018-12-07T12:01:55.667Z,990.24
2018-12-07T12:02:55.696Z,990.19
2018-12-07T12:03:55.740Z,990.10
2018-12-07T12:04:55.731Z,990.09
2018-12-07T12:05:55.745Z,990.10
2018-12-07T12:06:55.815Z,990.08
2018-12-07T12:07:55.789Z,990.03
2018-12-07T12:08:55.804Z,990.02
2018-12-07T12:09:55.827Z,989.96
2018-12-07T12:10:55.851Z,989.96
2018-12-07T12:11:55.868Z,989.86
2018-12-07T12:12:55.886Z,989.96
2018-12-07T12:13:55.906Z,989.84
2018-12-07T12:14:55.934Z,989.86
2018-12-07T12:15:55.949Z,989.83
2018-12-07T12:16:55.988Z,989.86
2018-12-07T12:17:55.985Z,989.78
2018-12-07T12:18:56.009Z,989.79
2018-12-07T12:19:56.027Z,989.82
2018-12-07T12:20:56.047Z,989.74
2018-12-07T12:21:56.063Z,989.78
2018-12-07T12:22:56.088Z,989.68
2018-12-07T12:23:56.103Z,989.68
2018-12-07T12:24:56.131Z,989.65
2018-12-07T12:25:56.140Z,989.69
2018-12-07T12:26:56.165Z,989.64
2018-12-07T12:27:56.191Z,989.65
2018-12-07T12:28:56.201Z,989.67